createdAt,value
2023-02-09T00:00:14.594Z,12.70
2023-02-09T00:02:42.877Z,13.77
2023-02-09T00:05:10.574Z,11.55
2023-02-09T00:07:37.568Z,13.82
2023-02-09T00:10:05.815Z,14.32
2023-02-09T00:13:02.089Z,11.88
2023-02-09T00:15:29.123Z,15.75
2023-02-09T00:17:56.296Z,10.25
2023-02-09T00:20:23.252Z,11.52
2023-02-09T00:22:50.152Z,12.85
2023-02-09T00:25:17.109Z,13.07
2023-02-09T00:27:44.161Z,11.25
2023-02-09T00:30:11.804Z,11.77
2023-02-09T00:32:38.757Z,11.82
2023-02-09T00:35:07.868Z,12.18
2023-02-09T00:37:35.775Z,12.02
2023-02-09T00:40:03.489Z,13.82
2023-02-09T00:42:30.501Z,10.02
2023-02-09T00:44:57.447Z,14.70
2023-02-09T00:47:24.505Z,12.88
2023-02-09T00:49:51.497Z,12.75
2023-02-09T00:52:18.594Z,10.70
2023-02-09T00:54:45.646Z,9.20
2023-02-09T00:57:12.657Z,9.40
2023-02-09T00:59:40.908Z,10.32
2023-02-09T01:02:09.292Z,11.50
2023-02-09T01:04:37.904Z,13.02
2023-02-09T01:07:04.840Z,12.80
2023-02-09T01:09:31.834Z,11.82
2023-02-09T01:11:59.015Z,11.82
2023-02-09T01:14:26.029Z,10.50
2023-02-09T01:16:53.363Z,11.18
2023-02-09T01:19:20.415Z,12.52
2023-02-09T01:21:48.975Z,11.73
2023-02-09T01:24:16.237Z,9.70
2023-02-09T01:26:43.227Z,12.88
2023-02-09T01:29:13.960Z,11.30
2023-02-09T01:31:41.120Z,11.60
2023-02-09T01:34:08.377Z,11.60
2023-02-09T01:36:35.649Z,13.30
2023-02-09T01:39:03.605Z,11.43
2023-02-09T01:41:31.653Z,11.65
2023-02-09T01:44:04.369Z,17.90
2023-02-09T01:46:34.198Z,11.45
2023-02-09T01:49:22.027Z,9.95
2023-02-09T01:51:51.525Z,11.38
2023-02-09T01:54:32.404Z,10.57
2023-02-09T01:57:07.049Z,10.85
2023-02-09T01:59:35.948Z,10.75
2023-02-09T02:02:04.776Z,13.48
2023-02-09T02:04:32.744Z,10.70
2023-02-09T02:07:12.440Z,10.77
2023-02-09T02:09:39.986Z,9.73
2023-02-09T02:12:07.093Z,11.43
2023-02-09T02:14:39.964Z,10.13
2023-02-09T02:17:14.218Z,13.98
2023-02-09T02:20:10.668Z,12.02
2023-02-09T02:23:17.249Z,12.10
2023-02-09T02:25:53.251Z,11.48
2023-02-09T02:28:35.096Z,11.68
2023-02-09T02:31:17.450Z,13.23
2023-02-09T02:34:07.408Z,10.32
2023-02-09T02:36:39.030Z,11.35
2023-02-09T02:39:18.478Z,9.60
2023-02-09T02:42:16.722Z,13.80
2023-02-09T02:45:01.915Z,10.02
2023-02-09T02:47:34.480Z,12.43
2023-02-09T02:50:10.731Z,11.25
2023-02-09T02:52:40.764Z,12.05
2023-02-09T02:55:14.507Z,15.93
2023-02-09T02:57:47.254Z,9.95
2023-02-09T03:00:21.522Z,12.45
2023-02-09T03:02:58.550Z,15.35
2023-02-09T03:05:27.078Z,12.55
2023-02-09T03:07:54.151Z,12.77
2023-02-09T03:10:41.344Z,13.25
2023-02-09T03:13:45.483Z,11.70
2023-02-09T03:16:21.307Z,11.50
2023-02-09T03:21:56.979Z,11.60
2023-02-09T03:24:42.661Z,10.82
2023-02-09T03:27:19.241Z,12.18
2023-02-09T03:29:48.973Z,12.40
2023-02-09T03:32:17.393Z,12.55
2023-02-09T03:34:45.134Z,12.85
2023-02-09T03:37:12.255Z,12.95
2023-02-09T03:39:39.307Z,12.38
2023-02-09T03:42:06.696Z,12.43
2023-02-09T03:44:33.656Z,11.45
2023-02-09T03:47:06.129Z,13.75
2023-02-09T03:49:39.446Z,14.00
2023-02-09T03:52:08.841Z,11.50
2023-02-09T03:54:36.044Z,13.20
2023-02-09T03:57:04.306Z,11.73
2023-02-09T03:59:35.344Z,16.33
2023-02-09T04:02:03.831Z,11.93
2023-02-09T04:04:31.836Z,12.27
2023-02-09T04:06:59.539Z,12.52
2023-02-09T04:09:27.539Z,12.85
2023-02-09T04:11:54.893Z,13.57
2023-02-09T04:14:22.307Z,14.13
2023-02-09T04:16:49.536Z,11.90
2023-02-09T04:19:16.630Z,10.98
2023-02-09T04:21:43.723Z,13.15
2023-02-09T04:24:10.820Z,13.95
2023-02-09T04:26:37.976Z,14.25
2023-02-09T04:29:05.530Z,14.60
2023-02-09T04:31:32.532Z,12.93
2023-02-09T04:33:59.761Z,12.68
2023-02-09T04:36:27.081Z,15.23
2023-02-09T04:38:53.986Z,12.35
2023-02-09T04:41:21.223Z,10.05
2023-02-09T04:43:48.647Z,12.88
2023-02-09T04:46:18.062Z,12.10
2023-02-09T04:48:45.420Z,11.25
2023-02-09T04:51:13.264Z,11.88
2023-02-09T04:53:40.871Z,11.63
2023-02-09T04:56:08.326Z,12.43
2023-02-09T04:58:54.204Z,10.60
2023-02-09T05:01:24.392Z,13.05
2023-02-09T05:03:51.685Z,12.82
2023-02-09T05:06:19.091Z,11.05
2023-02-09T05:08:46.636Z,11.65
2023-02-09T05:11:13.604Z,12.40
2023-02-09T05:13:43.610Z,13.18
2023-02-09T05:16:14.660Z,15.10
2023-02-09T05:18:41.641Z,14.55
2023-02-09T05:21:08.773Z,11.98
2023-02-09T05:23:35.930Z,23.83
2023-02-09T05:26:03.387Z,13.20
2023-02-09T05:28:30.399Z,14.57
2023-02-09T05:30:57.446Z,12.60
2023-02-09T05:33:25.603Z,15.25
2023-02-09T05:35:55.892Z,12.25
2023-02-09T05:38:23.515Z,10.80
2023-02-09T05:40:51.085Z,15.23
2023-02-09T05:43:18.373Z,16.60
2023-02-09T05:45:45.977Z,12.57
2023-02-09T05:48:13.119Z,12.57
2023-02-09T05:50:40.151Z,12.05
2023-02-09T05:53:08.354Z,11.98
2023-02-09T05:55:37.055Z,13.85
2023-02-09T05:58:04.483Z,11.50
2023-02-09T06:00:31.738Z,13.00
2023-02-09T06:02:58.832Z,13.10
2023-02-09T06:05:26.516Z,12.60
2023-02-09T06:07:53.658Z,14.48
2023-02-09T06:10:21.014Z,13.48
2023-02-09T06:12:48.092Z,14.50
2023-02-09T06:15:16.454Z,13.63
2023-02-09T06:17:43.825Z,12.90
2023-02-09T06:20:11.451Z,12.07
2023-02-09T06:22:38.473Z,13.27
2023-02-09T06:25:06.008Z,14.13
2023-02-09T06:27:32.992Z,12.10
2023-02-09T06:29:59.981Z,13.15
2023-02-09T06:32:26.991Z,10.80
2023-02-09T06:34:53.990Z,12.80
2023-02-09T06:37:20.862Z,11.82
2023-02-09T06:39:47.816Z,11.15
2023-02-09T06:42:14.835Z,14.75
2023-02-09T06:44:42.010Z,13.30
2023-02-09T06:47:09.470Z,16.90
2023-02-09T06:49:36.520Z,14.07
2023-02-09T06:52:04.154Z,12.77
2023-02-09T06:54:31.300Z,17.83
2023-02-09T06:56:58.308Z,15.45
2023-02-09T06:59:25.357Z,16.52
2023-02-09T07:01:54.816Z,14.27
2023-02-09T07:04:22.725Z,12.85
2023-02-09T07:06:49.993Z,13.27
2023-02-09T07:09:17.015Z,13.88
2023-02-09T07:11:44.052Z,11.27
2023-02-09T07:14:11.262Z,14.25
2023-02-09T07:16:38.301Z,14.05
2023-02-09T07:19:05.307Z,14.55
2023-02-09T07:21:32.298Z,14.20
2023-02-09T07:23:59.311Z,14.85
2023-02-09T07:26:26.344Z,13.68
2023-02-09T07:28:53.344Z,14.00
2023-02-09T07:31:20.351Z,15.88
2023-02-09T07:33:47.787Z,18.85
2023-02-09T07:36:16.438Z,14.15
2023-02-09T07:38:44.046Z,13.27
2023-02-09T07:41:20.281Z,13.77
2023-02-09T07:43:47.867Z,14.93
2023-02-09T07:46:17.064Z,13.07
2023-02-09T07:48:44.500Z,17.05
2023-02-09T07:51:15.431Z,14.60
2023-02-09T07:53:43.045Z,17.83
2023-02-09T07:56:09.973Z,19.80
2023-02-09T07:58:36.927Z,16.80
2023-02-09T08:01:06.552Z,16.10
2023-02-09T08:03:35.991Z,15.50
2023-02-09T08:06:11.140Z,15.98
2023-02-09T08:08:38.397Z,17.80
2023-02-09T08:11:05.521Z,15.10
2023-02-09T08:13:38.116Z,18.23
2023-02-09T08:16:08.142Z,18.25
2023-02-09T08:18:40.608Z,22.52
2023-02-09T08:21:11.428Z,20.35
2023-02-09T08:23:41.102Z,14.98
2023-02-09T08:26:10.294Z,17.17
2023-02-09T08:28:44.126Z,12.93
2023-02-09T08:31:17.048Z,13.90
2023-02-09T08:33:45.381Z,15.35
2023-02-09T08:36:14.140Z,14.95
2023-02-09T08:38:41.604Z,13.02
2023-02-09T08:41:11.752Z,16.05
2023-02-09T08:43:39.354Z,16.35
2023-02-09T08:46:12.212Z,16.23
2023-02-09T08:48:41.688Z,12.88
2023-02-09T08:51:09.814Z,16.08
2023-02-09T08:53:38.718Z,13.30
2023-02-09T08:56:06.340Z,15.85
2023-02-09T08:58:33.545Z,14.93
2023-02-09T09:01:01.004Z,15.45
2023-02-09T09:03:31.455Z,11.57
2023-02-09T09:06:00.247Z,11.75
2023-02-09T09:08:27.742Z,13.13
2023-02-09T09:10:54.858Z,13.75
2023-02-09T09:13:22.069Z,13.20
2023-02-09T09:15:49.368Z,13.75
2023-02-09T09:18:16.735Z,16.75
2023-02-09T09:20:43.703Z,10.18
2023-02-09T09:23:11.383Z,15.35
2023-02-09T09:25:40.418Z,11.98
2023-02-09T09:28:08.430Z,15.10
2023-02-09T09:30:36.133Z,12.13
2023-02-09T09:33:04.004Z,12.90
2023-02-09T09:35:31.813Z,13.45
2023-02-09T09:37:59.111Z,14.75
2023-02-09T09:40:32.380Z,13.73
2023-02-09T09:43:03.012Z,13.80
2023-02-09T09:45:33.315Z,15.23
2023-02-09T09:48:00.467Z,13.93
2023-02-09T09:50:42.810Z,14.27
2023-02-09T09:53:17.929Z,12.77
2023-02-09T09:55:46.145Z,14.32
2023-02-09T09:58:18.740Z,14.90
2023-02-09T10:00:45.858Z,14.18
2023-02-09T10:03:18.397Z,12.90
2023-02-09T10:05:49.442Z,15.65
2023-02-09T10:08:30.031Z,14.27
2023-02-09T10:11:06.131Z,14.18
2023-02-09T10:13:51.575Z,11.32
2023-02-09T10:16:27.704Z,14.60
2023-02-09T10:18:59.947Z,14.70
2023-02-09T10:21:30.400Z,16.35
2023-02-09T10:24:00.161Z,17.75
2023-02-09T10:26:39.265Z,13.05
2023-02-09T10:29:13.091Z,18.27
2023-02-09T10:31:47.525Z,16.20
2023-02-09T10:34:18.497Z,14.98
2023-02-09T10:37:25.934Z,15.93
2023-02-09T10:40:08.712Z,15.57
2023-02-09T10:42:37.643Z,18.05
2023-02-09T10:45:19.342Z,16.90
2023-02-09T10:48:12.588Z,15.85
2023-02-09T10:50:59.163Z,15.20
2023-02-09T10:53:30.403Z,15.13
2023-02-09T10:56:03.486Z,15.38
2023-02-09T10:58:33.510Z,17.60
2023-02-09T11:01:09.747Z,16.25
2023-02-09T11:03:38.403Z,17.83
2023-02-09T11:06:19.556Z,16.88
2023-02-09T11:08:49.720Z,16.80
2023-02-09T11:11:25.088Z,15.65
2023-02-09T11:13:52.218Z,15.60
2023-02-09T11:16:33.428Z,16.52
2023-02-09T11:19:10.405Z,15.57
2023-02-09T11:21:49.939Z,14.73
2023-02-09T11:24:40.996Z,16.08
2023-02-09T11:27:32.189Z,15.68
2023-02-09T11:30:20.832Z,27.73
2023-02-09T11:33:19.284Z,18.00
2023-02-09T11:36:15.886Z,16.30
2023-02-09T11:38:59.477Z,16.27
2023-02-09T11:41:52.481Z,14.27
2023-02-09T11:44:51.604Z,15.52
2023-02-09T11:47:31.056Z,17.77
2023-02-09T11:50:01.928Z,17.67
2023-02-09T11:52:36.288Z,16.10
2023-02-09T11:55:18.162Z,16.55
2023-02-09T11:57:50.400Z,15.30
2023-02-09T12:00:26.476Z,15.65
2023-02-09T12:03:10.545Z,15.07
2023-02-09T12:05:38.779Z,17.05
2023-02-09T12:08:38.710Z,17.75
2023-02-09T12:11:28.875Z,15.13
2023-02-09T12:14:18.780Z,12.80
2023-02-09T12:16:55.401Z,17.52
2023-02-09T12:19:33.710Z,15.85
2023-02-09T12:22:36.047Z,16.58
2023-02-09T12:25:12.232Z,15.50
2023-02-09T12:28:03.024Z,19.45
2023-02-09T12:30:45.368Z,17.20
2023-02-09T12:33:24.499Z,16.50
2023-02-09T12:36:05.051Z,15.63
2023-02-09T12:39:23.824Z,21.95
2023-02-09T12:41:51.062Z,17.20
2023-02-09T12:44:19.369Z,21.85
2023-02-09T12:46:52.854Z,18.73
2023-02-09T12:49:40.297Z,17.55
2023-02-09T12:52:16.744Z,16.42
2023-02-09T12:54:51.214Z,16.95
2023-02-09T12:57:18.884Z,17.88
2023-02-09T13:00:01.021Z,18.40
2023-02-09T13:02:50.728Z,20.88
2023-02-09T13:05:34.684Z,18.45
2023-02-09T13:08:22.535Z,20.13
2023-02-09T13:11:25.835Z,20.45
2023-02-09T13:13:55.051Z,17.50
2023-02-09T13:16:25.182Z,23.05
2023-02-09T13:19:10.084Z,17.23
2023-02-09T13:22:08.916Z,16.23
2023-02-09T13:24:41.921Z,17.33
2023-02-09T13:27:21.676Z,18.08
2023-02-09T13:29:53.755Z,19.70
2023-02-09T13:32:56.274Z,21.42
2023-02-09T13:35:34.439Z,17.50
2023-02-09T13:38:13.368Z,20.17
2023-02-09T13:40:46.554Z,17.88
2023-02-09T13:43:17.337Z,19.40
2023-02-09T13:45:53.699Z,19.38
2023-02-09T13:48:27.070Z,18.38
2023-02-09T13:50:56.473Z,18.10
2023-02-09T13:53:26.171Z,17.73
2023-02-09T13:55:55.876Z,18.90
2023-02-09T13:58:35.297Z,18.35
2023-02-09T14:01:07.359Z,18.55
2023-02-09T14:03:57.768Z,18.80
2023-02-09T14:06:39.965Z,19.05
2023-02-09T14:09:22.822Z,21.92
2023-02-09T14:11:52.256Z,17.85
2023-02-09T14:14:59.141Z,20.58
2023-02-09T14:17:38.901Z,18.90
2023-02-09T14:20:26.364Z,19.42
2023-02-09T14:23:01.150Z,21.08
2023-02-09T14:25:30.585Z,18.67
2023-02-09T14:27:58.260Z,21.48
2023-02-09T14:30:29.541Z,19.15
2023-02-09T14:32:58.729Z,21.10
2023-02-09T14:35:31.326Z,23.13
2023-02-09T14:38:00.537Z,20.67
2023-02-09T14:40:27.725Z,18.95
2023-02-09T14:43:03.769Z,21.70
2023-02-09T14:45:47.901Z,19.67
2023-02-09T14:48:26.532Z,19.05
2023-02-09T14:50:59.114Z,19.20
2023-02-09T14:53:31.861Z,17.23
2023-02-09T14:55:59.622Z,21.05
2023-02-09T14:58:31.429Z,19.52
2023-02-09T15:01:01.288Z,22.13
2023-02-09T15:03:28.565Z,20.40
2023-02-09T15:06:00.490Z,20.48
2023-02-09T15:08:30.139Z,20.95
2023-02-09T15:11:00.828Z,20.10
2023-02-09T15:13:30.406Z,20.30
2023-02-09T15:15:57.554Z,21.20
2023-02-09T15:18:26.761Z,18.35
2023-02-09T15:20:53.897Z,22.30
2023-02-09T15:23:20.944Z,20.52
2023-02-09T15:25:48.391Z,21.75
2023-02-09T15:28:28.459Z,22.27
2023-02-09T15:30:58.136Z,21.33
2023-02-09T15:33:26.167Z,24.77
2023-02-09T15:35:53.495Z,21.60
2023-02-09T15:38:20.724Z,20.15
2023-02-09T15:41:08.248Z,22.90
2023-02-09T15:43:54.474Z,19.00
2023-02-09T15:49:07.615Z,20.23
2023-02-09T15:51:37.711Z,20.08
2023-02-09T15:54:22.745Z,20.98
2023-02-09T15:56:49.802Z,25.30
2023-02-09T15:59:22.381Z,20.85
2023-02-09T16:01:50.214Z,21.63
2023-02-09T16:04:17.495Z,21.08
2023-02-09T16:06:49.309Z,21.17
2023-02-09T16:09:20.893Z,22.77
2023-02-09T16:11:48.544Z,23.13
2023-02-09T16:14:20.850Z,20.67
2023-02-09T16:16:48.915Z,24.17
2023-02-09T16:19:16.997Z,30.05
2023-02-09T16:21:56.405Z,21.30
2023-02-09T16:24:43.819Z,23.48
2023-02-09T16:27:24.421Z,25.05
2023-02-09T16:29:51.497Z,25.85
2023-02-09T16:32:22.004Z,19.42
2023-02-09T16:34:50.319Z,24.00
2023-02-09T16:37:28.942Z,21.83
2023-02-09T16:39:58.262Z,23.52
2023-02-09T16:42:25.564Z,25.08
2023-02-09T16:44:53.195Z,20.38
2023-02-09T16:47:28.120Z,25.05
2023-02-09T16:50:04.057Z,26.17
2023-02-09T16:52:31.371Z,25.40
2023-02-09T16:55:00.872Z,22.92
2023-02-09T16:57:28.819Z,26.88
2023-02-09T16:59:55.988Z,24.02
2023-02-09T17:02:34.671Z,24.98
2023-02-09T17:05:07.961Z,24.08
2023-02-09T17:07:45.600Z,23.23
2023-02-09T17:10:22.453Z,21.43
2023-02-09T17:12:51.516Z,23.80
2023-02-09T17:15:29.402Z,24.20
2023-02-09T17:18:02.314Z,24.65
2023-02-09T17:20:37.267Z,24.42
2023-02-09T17:23:04.993Z,26.30
2023-02-09T17:25:31.958Z,24.02
2023-02-09T17:27:59.212Z,22.75
2023-02-09T17:30:26.230Z,25.52
2023-02-09T17:33:01.321Z,23.05
2023-02-09T17:35:58.042Z,25.80
2023-02-09T17:38:28.385Z,25.92
2023-02-09T17:40:57.234Z,22.55
2023-02-09T17:43:24.922Z,22.73
2023-02-09T17:45:52.892Z,24.70
2023-02-09T17:48:22.015Z,21.80
2023-02-09T17:50:52.585Z,23.52
2023-02-09T17:53:23.030Z,21.40
2023-02-09T17:55:51.669Z,25.67
2023-02-09T17:58:18.985Z,26.27
2023-02-09T18:00:46.755Z,22.23
2023-02-09T18:03:19.644Z,26.98
2023-02-09T18:05:52.618Z,22.58
2023-02-09T18:08:20.632Z,23.45
2023-02-09T18:10:48.035Z,20.27
2023-02-09T18:13:20.047Z,24.08
2023-02-09T18:15:48.809Z,25.15
2023-02-09T18:18:16.212Z,21.55
2023-02-09T18:20:43.169Z,23.02
2023-02-09T18:23:15.296Z,25.45
2023-02-09T18:25:42.601Z,22.63
2023-02-09T18:28:09.750Z,29.25
2023-02-09T18:30:39.215Z,21.63
2023-02-09T18:33:07.412Z,29.27
2023-02-09T18:35:38.248Z,24.50
2023-02-09T18:38:07.774Z,26.38
2023-02-09T18:40:34.998Z,24.13
2023-02-09T18:43:03.339Z,24.52
2023-02-09T18:45:30.709Z,29.75
2023-02-09T18:47:57.970Z,25.73
2023-02-09T18:50:30.396Z,23.95
2023-02-09T18:53:00.157Z,20.17
2023-02-09T18:55:29.705Z,24.73
2023-02-09T18:57:59.729Z,23.10
2023-02-09T19:00:27.312Z,21.58
2023-02-09T19:02:58.887Z,22.02
2023-02-09T19:05:29.185Z,23.27
2023-02-09T19:07:56.937Z,28.52
2023-02-09T19:10:24.241Z,23.42
2023-02-09T19:12:51.668Z,28.77
2023-02-09T19:15:19.345Z,24.52
2023-02-09T19:17:46.425Z,30.40
2023-02-09T19:20:19.100Z,31.38
2023-02-09T19:22:47.883Z,26.48
2023-02-09T19:25:15.287Z,26.48
2023-02-09T19:27:42.377Z,27.25
2023-02-09T19:30:13.160Z,26.92
2023-02-09T19:32:41.374Z,26.15
2023-02-09T19:35:08.521Z,30.40
2023-02-09T19:37:36.298Z,23.58
2023-02-09T19:40:21.208Z,27.05
2023-02-09T19:42:48.795Z,29.08
2023-02-09T19:45:15.978Z,25.98
2023-02-09T19:47:43.036Z,31.40
2023-02-09T19:50:11.061Z,29.00
2023-02-09T19:52:38.876Z,21.58
2023-02-09T19:55:06.388Z,25.33
2023-02-09T19:57:33.349Z,28.45
2023-02-09T20:00:00.247Z,29.80
2023-02-09T20:02:27.290Z,30.73
2023-02-09T20:04:54.214Z,37.72
2023-02-09T20:07:21.183Z,25.52
2023-02-09T20:09:49.722Z,27.75
2023-02-09T20:12:16.825Z,33.42
2023-02-09T20:14:43.820Z,31.30
2023-02-09T20:17:10.819Z,33.22
2023-02-09T20:19:37.894Z,28.92
2023-02-09T20:22:04.986Z,28.52
2023-02-09T20:24:31.997Z,24.67
2023-02-09T20:26:58.952Z,30.48
2023-02-09T20:29:25.906Z,27.70
2023-02-09T20:31:53.025Z,31.17
2023-02-09T20:34:20.018Z,28.70
2023-02-09T20:36:50.622Z,28.83
2023-02-09T20:39:17.910Z,30.40
2023-02-09T20:42:08.068Z,30.77
2023-02-09T20:44:53.960Z,33.33
2023-02-09T20:47:20.909Z,28.55
2023-02-09T20:49:47.849Z,32.75
2023-02-09T20:52:14.924Z,29.63
2023-02-09T20:54:41.864Z,29.70
2023-02-09T20:57:08.985Z,29.90
2023-02-09T20:59:35.918Z,31.38
2023-02-09T21:02:02.953Z,32.42
2023-02-09T21:04:30.353Z,42.33
2023-02-09T21:06:58.726Z,34.50
2023-02-09T21:09:29.321Z,37.90
2023-02-09T21:11:57.072Z,31.40
2023-02-09T21:14:32.514Z,31.88
2023-02-09T21:17:06.227Z,32.15
2023-02-09T21:19:36.163Z,37.72
2023-02-09T21:22:03.224Z,32.50
2023-02-09T21:24:30.432Z,35.63
2023-02-09T21:26:57.443Z,29.90
2023-02-09T21:29:24.410Z,30.50
2023-02-09T21:31:52.055Z,33.75
2023-02-09T21:34:19.175Z,30.67
2023-02-09T21:36:46.140Z,33.97
2023-02-09T21:39:13.602Z,36.45
2023-02-09T21:41:59.512Z,32.30
2023-02-09T21:44:26.442Z,35.53
2023-02-09T21:46:54.149Z,35.53
2023-02-09T21:49:21.511Z,29.02
2023-02-09T21:51:48.558Z,32.55
2023-02-09T21:54:16.873Z,34.72
2023-02-09T21:56:44.448Z,32.28
2023-02-09T21:59:11.418Z,38.20
2023-02-09T22:01:39.546Z,36.85
2023-02-09T22:04:06.731Z,35.22
2023-02-09T22:06:33.698Z,34.05
2023-02-09T22:09:02.863Z,37.85
2023-02-09T22:11:30.148Z,40.38
2023-02-09T22:13:57.191Z,39.80
2023-02-09T22:16:24.813Z,41.53
2023-02-09T22:18:52.517Z,35.67
2023-02-09T22:21:19.463Z,37.42
2023-02-09T22:23:46.616Z,36.63
2023-02-09T22:26:14.071Z,39.15
2023-02-09T22:28:42.711Z,33.83
2023-02-09T22:31:12.820Z,34.85
2023-02-09T22:33:40.294Z,39.10
2023-02-09T22:36:11.267Z,45.72
2023-02-09T22:38:38.530Z,40.63
2023-02-09T22:41:23.457Z,35.17
2023-02-09T22:43:55.825Z,34.75
2023-02-09T22:46:25.328Z,36.10
2023-02-09T22:48:57.639Z,35.20
2023-02-09T22:51:28.281Z,36.50
2023-02-09T22:53:56.839Z,38.80
2023-02-09T22:56:24.197Z,38.72
2023-02-09T22:58:54.155Z,36.25
2023-02-09T23:01:21.446Z,37.95
2023-02-09T23:03:49.360Z,36.65
2023-02-09T23:06:19.228Z,43.35
2023-02-09T23:08:46.543Z,36.55
2023-02-09T23:11:16.646Z,36.80
2023-02-09T23:13:44.393Z,42.92
2023-02-09T23:16:15.763Z,40.50
2023-02-09T23:18:51.989Z,42.20
2023-02-09T23:21:21.540Z,80.90
2023-02-09T23:23:49.153Z,53.83
2023-02-09T23:26:17.897Z,38.85
2023-02-09T23:28:45.174Z,38.60
2023-02-09T23:31:17.627Z,35.78
2023-02-09T23:33:45.391Z,43.97
2023-02-09T23:36:20.841Z,37.00
2023-02-09T23:38:52.089Z,38.15
2023-02-09T23:41:19.591Z,39.13
2023-02-09T23:43:47.432Z,36.78
2023-02-09T23:46:28.464Z,40.03
2023-02-09T23:48:56.256Z,34.78
2023-02-09T23:51:26.696Z,34.67
2023-02-09T23:53:55.088Z,42.63
2023-02-09T23:56:22.867Z,38.65
2023-02-09T23:58:51.920Z,35.03
